createdAt,value
2023-05-09T00:00:31.016Z,78.18
2023-05-09T00:02:57.540Z,77.24
2023-05-09T00:05:23.903Z,76.63
2023-05-09T00:07:50.336Z,76.60
2023-05-09T00:10:16.767Z,78.14
2023-05-09T00:12:43.753Z,77.66
2023-05-09T00:15:10.226Z,76.14
2023-05-09T00:17:38.496Z,76.39
2023-05-09T00:20:12.012Z,74.95
2023-05-09T00:22:38.429Z,75.67
2023-05-09T00:25:04.757Z,76.07
2023-05-09T00:27:31.345Z,76.03
2023-05-09T00:29:57.941Z,75.77
2023-05-09T00:32:25.792Z,76.81
2023-05-09T00:34:52.203Z,78.03
2023-05-09T00:37:19.317Z,77.30
2023-05-09T00:39:45.992Z,77.16
2023-05-09T00:42:12.397Z,77.85
2023-05-09T00:44:38.871Z,77.07
2023-05-09T00:47:05.357Z,77.76
2023-05-09T00:49:31.733Z,76.51
2023-05-09T00:51:58.134Z,77.23
2023-05-09T00:54:24.590Z,76.41
2023-05-09T00:56:50.966Z,77.24
2023-05-09T00:59:18.140Z,77.57
2023-05-09T01:01:44.544Z,78.03
2023-05-09T01:04:10.931Z,77.74
2023-05-09T01:06:41.156Z,77.20
2023-05-09T01:09:07.519Z,77.64
2023-05-09T01:11:33.876Z,77.42
2023-05-09T01:14:00.616Z,76.04
2023-05-09T01:16:27.198Z,77.91
2023-05-09T01:18:53.589Z,78.54
2023-05-09T01:21:20.006Z,77.06
2023-05-09T01:23:46.662Z,75.34
2023-05-09T01:26:13.240Z,77.75
2023-05-09T01:28:39.667Z,77.69
2023-05-09T01:31:06.097Z,76.15
2023-05-09T01:33:32.545Z,74.76
2023-05-09T01:35:58.914Z,76.32
2023-05-09T01:38:25.282Z,76.27
2023-05-09T01:40:51.758Z,74.79
2023-05-09T01:43:18.858Z,75.27
2023-05-09T01:45:45.268Z,75.55
2023-05-09T01:48:11.642Z,75.62
2023-05-09T01:50:38.011Z,76.74
2023-05-09T01:53:04.437Z,75.17
2023-05-09T01:55:30.843Z,74.93
2023-05-09T01:57:57.284Z,75.21
2023-05-09T02:00:23.718Z,77.58
2023-05-09T02:02:50.145Z,77.27
2023-05-09T02:05:16.810Z,76.44
2023-05-09T02:07:43.333Z,76.22
2023-05-09T02:10:09.794Z,77.09
2023-05-09T02:12:37.075Z,76.91
2023-05-09T02:15:03.507Z,76.01
2023-05-09T02:17:30.866Z,77.80
2023-05-09T02:19:57.354Z,75.75
2023-05-09T02:22:23.765Z,77.85
2023-05-09T02:24:51.205Z,76.76
2023-05-09T02:27:18.010Z,75.61
2023-05-09T02:29:44.501Z,74.94
2023-05-09T02:32:11.383Z,75.42
2023-05-09T02:34:37.897Z,77.40
2023-05-09T02:37:04.611Z,78.63
2023-05-09T02:39:31.008Z,78.41
2023-05-09T02:41:57.483Z,79.30
2023-05-09T02:44:25.721Z,80.18
2023-05-09T02:46:52.075Z,81.08
2023-05-09T02:49:31.433Z,80.74
2023-05-09T02:51:58.808Z,81.00
2023-05-09T02:54:25.280Z,81.96
2023-05-09T02:56:51.750Z,80.05
2023-05-09T02:59:18.140Z,80.84
2023-05-09T03:01:44.993Z,80.59
2023-05-09T03:04:11.476Z,79.88
2023-05-09T03:06:38.015Z,80.79
2023-05-09T03:09:04.453Z,79.83
2023-05-09T03:11:31.566Z,81.02
2023-05-09T03:13:58.108Z,80.24
2023-05-09T03:16:24.656Z,83.32
2023-05-09T03:18:51.548Z,82.78
2023-05-09T03:21:17.958Z,81.24
2023-05-09T03:23:44.613Z,81.49
2023-05-09T03:26:10.946Z,80.51
2023-05-09T03:28:37.692Z,80.15
2023-05-09T03:31:05.614Z,79.76
2023-05-09T03:33:32.326Z,79.22
2023-05-09T03:36:00.753Z,79.90
2023-05-09T03:38:27.617Z,80.78
2023-05-09T03:40:54.043Z,80.77
2023-05-09T03:43:23.062Z,80.89
2023-05-09T03:45:49.449Z,80.68
2023-05-09T03:48:19.026Z,81.82
2023-05-09T03:50:50.051Z,80.92
2023-05-09T03:53:16.523Z,82.13
2023-05-09T03:55:45.610Z,83.59
2023-05-09T03:58:14.770Z,83.02
2023-05-09T04:00:42.728Z,83.61
2023-05-09T04:03:15.130Z,84.00
2023-05-09T04:05:45.724Z,83.10
2023-05-09T04:08:20.234Z,84.85
2023-05-09T04:10:46.800Z,83.66
2023-05-09T04:13:13.679Z,83.22
2023-05-09T04:15:40.717Z,82.34
2023-05-09T04:18:07.287Z,82.86
2023-05-09T04:20:33.864Z,82.69
2023-05-09T04:23:01.273Z,82.24
2023-05-09T04:25:29.466Z,82.41
2023-05-09T04:27:56.658Z,83.52
2023-05-09T04:30:23.006Z,83.66
2023-05-09T04:32:49.915Z,83.32
2023-05-09T04:35:20.330Z,82.75
2023-05-09T04:37:48.297Z,81.82
2023-05-09T04:40:14.720Z,81.89
2023-05-09T04:42:47.845Z,81.28
2023-05-09T04:45:14.398Z,81.32
2023-05-09T04:47:41.073Z,80.93
2023-05-09T04:50:08.021Z,81.32
2023-05-09T04:52:34.366Z,81.60
2023-05-09T04:55:01.022Z,80.62
2023-05-09T04:57:32.288Z,81.55
2023-05-09T04:59:58.929Z,81.69
2023-05-09T05:02:25.522Z,81.28
2023-05-09T05:04:56.123Z,80.91
2023-05-09T05:07:27.181Z,81.03
2023-05-09T05:09:53.683Z,81.79
2023-05-09T05:12:20.084Z,81.50
2023-05-09T05:14:47.037Z,81.40
2023-05-09T05:17:18.507Z,82.59
2023-05-09T05:19:46.204Z,81.44
2023-05-09T05:22:13.254Z,81.79
2023-05-09T05:24:42.075Z,81.17
2023-05-09T05:27:08.857Z,81.71
2023-05-09T05:29:35.375Z,81.94
2023-05-09T05:32:01.828Z,80.67
2023-05-09T05:34:28.312Z,80.60
2023-05-09T05:36:55.230Z,81.10
2023-05-09T05:39:21.809Z,80.35
2023-05-09T05:41:48.238Z,79.44
2023-05-09T05:44:15.440Z,78.53
2023-05-09T05:46:42.079Z,77.29
2023-05-09T05:49:09.192Z,76.23
2023-05-09T05:51:35.655Z,77.46
2023-05-09T05:54:03.485Z,79.38
2023-05-09T05:56:29.970Z,76.78
2023-05-09T05:58:56.942Z,75.48
2023-05-09T06:01:23.463Z,75.80
2023-05-09T06:03:54.682Z,75.63
2023-05-09T06:06:23.661Z,75.26
2023-05-09T06:08:50.146Z,76.25
2023-05-09T06:11:16.728Z,76.66
2023-05-09T06:13:43.087Z,76.79
2023-05-09T06:16:19.504Z,76.32
2023-05-09T06:18:49.373Z,75.19
2023-05-09T06:21:15.842Z,74.72
2023-05-09T06:23:51.056Z,75.36
2023-05-09T06:26:28.439Z,75.17
2023-05-09T06:28:54.883Z,74.07
2023-05-09T06:31:21.984Z,73.78
2023-05-09T06:33:48.845Z,74.09
2023-05-09T06:36:15.290Z,72.51
2023-05-09T06:38:41.784Z,72.29
2023-05-09T06:41:08.152Z,73.04
2023-05-09T06:43:34.571Z,71.77
2023-05-09T06:46:01.021Z,71.94
2023-05-09T06:48:27.414Z,71.73
2023-05-09T06:50:53.762Z,71.29
2023-05-09T06:53:20.109Z,71.50
2023-05-09T06:55:46.538Z,72.91
2023-05-09T06:58:12.940Z,73.22
2023-05-09T07:00:39.367Z,73.51
2023-05-09T07:03:07.688Z,72.82
2023-05-09T07:05:34.487Z,73.01
2023-05-09T07:08:01.109Z,71.35
2023-05-09T07:10:27.763Z,70.25
2023-05-09T07:12:54.175Z,70.34
2023-05-09T07:15:29.136Z,69.59
2023-05-09T07:18:06.635Z,70.09
2023-05-09T07:20:33.103Z,69.95
2023-05-09T07:22:59.909Z,69.06
2023-05-09T07:25:26.332Z,69.53
2023-05-09T07:27:52.672Z,69.04
2023-05-09T07:30:19.079Z,68.45
2023-05-09T07:32:45.520Z,68.45
2023-05-09T07:35:12.201Z,70.16
2023-05-09T07:37:38.851Z,69.82
2023-05-09T07:40:06.168Z,69.10
2023-05-09T07:42:35.764Z,69.07
2023-05-09T07:45:04.463Z,69.85
2023-05-09T07:47:30.900Z,69.80
2023-05-09T07:49:57.305Z,70.15
2023-05-09T07:52:23.838Z,69.66
2023-05-09T07:54:50.333Z,68.66
2023-05-09T07:57:16.701Z,68.58
2023-05-09T07:59:43.087Z,68.67
2023-05-09T08:02:09.599Z,68.66
2023-05-09T08:04:41.234Z,68.18
2023-05-09T08:07:09.155Z,67.84
2023-05-09T08:09:35.956Z,66.50
2023-05-09T08:12:02.465Z,66.63
2023-05-09T08:14:28.898Z,66.27
2023-05-09T08:16:55.300Z,66.78
2023-05-09T08:19:23.566Z,65.49
2023-05-09T08:21:49.996Z,65.53
2023-05-09T08:24:16.338Z,64.02
2023-05-09T08:26:42.750Z,64.11
2023-05-09T08:29:09.152Z,64.32
2023-05-09T08:31:35.616Z,63.58
2023-05-09T08:34:02.319Z,63.78
2023-05-09T08:36:28.678Z,63.35
2023-05-09T08:38:55.175Z,61.29
2023-05-09T08:41:21.877Z,61.18
2023-05-09T08:43:48.256Z,60.44
2023-05-09T08:46:14.707Z,61.40
2023-05-09T08:48:41.135Z,61.42
2023-05-09T08:53:34.026Z,59.43
2023-05-09T08:56:01.776Z,58.84
2023-05-09T08:58:28.488Z,58.31
2023-05-09T09:00:55.648Z,58.27
2023-05-09T09:03:22.075Z,57.99
2023-05-09T09:05:49.378Z,58.27
2023-05-09T09:08:16.787Z,58.16
2023-05-09T09:10:47.071Z,57.92
2023-05-09T09:13:13.681Z,57.39
2023-05-09T09:15:40.575Z,56.92
2023-05-09T09:18:07.950Z,56.84
2023-05-09T09:20:34.726Z,57.78
2023-05-09T09:23:02.025Z,56.98
2023-05-09T09:25:28.417Z,56.72
2023-05-09T09:27:54.939Z,56.57
2023-05-09T09:33:05.770Z,55.74
2023-05-09T09:35:41.408Z,56.01
2023-05-09T09:38:07.863Z,55.21
2023-05-09T09:40:34.272Z,55.46
2023-05-09T09:43:00.716Z,53.74
2023-05-09T09:45:27.860Z,52.89
2023-05-09T09:47:54.687Z,52.82
2023-05-09T09:50:23.385Z,54.31
2023-05-09T09:52:50.184Z,52.80
2023-05-09T09:55:16.610Z,53.66
2023-05-09T09:57:45.776Z,53.08
2023-05-09T10:00:13.208Z,53.33
2023-05-09T10:02:39.868Z,52.78
2023-05-09T10:05:06.730Z,53.78
2023-05-09T10:07:33.194Z,53.32
2023-05-09T10:10:00.771Z,53.67
2023-05-09T10:12:27.126Z,53.45
2023-05-09T10:14:53.477Z,53.65
2023-05-09T10:17:19.919Z,54.30
2023-05-09T10:19:46.547Z,54.14
2023-05-09T10:22:13.249Z,54.28
2023-05-09T10:24:39.666Z,53.55
2023-05-09T10:27:06.015Z,54.16
2023-05-09T10:29:32.381Z,53.36
2023-05-09T10:31:59.071Z,52.42
2023-05-09T10:34:26.010Z,51.76
2023-05-09T10:36:52.448Z,52.54
2023-05-09T10:39:18.788Z,51.35
2023-05-09T10:41:45.134Z,51.79
2023-05-09T10:44:11.483Z,51.23
2023-05-09T10:46:37.913Z,51.95
2023-05-09T10:49:04.465Z,51.49
2023-05-09T10:51:30.884Z,50.93
2023-05-09T10:53:57.922Z,52.15
2023-05-09T10:56:24.322Z,52.44
2023-05-09T10:58:50.700Z,53.05
2023-05-09T11:01:17.722Z,52.12
2023-05-09T11:03:44.260Z,52.42
2023-05-09T11:06:10.667Z,52.44
2023-05-09T11:08:37.062Z,51.46
2023-05-09T11:11:03.497Z,51.24
2023-05-09T11:13:30.010Z,52.43
2023-05-09T11:15:56.482Z,52.97
2023-05-09T11:18:22.883Z,52.28
2023-05-09T11:20:49.297Z,51.21
2023-05-09T11:23:17.354Z,51.32
2023-05-09T11:25:43.782Z,50.66
2023-05-09T11:28:11.770Z,50.97
2023-05-09T11:30:38.209Z,50.04
2023-05-09T11:33:06.829Z,49.60
2023-05-09T11:35:33.528Z,49.87
2023-05-09T11:38:00.316Z,50.77
2023-05-09T11:40:26.789Z,50.26
2023-05-09T11:42:58.378Z,49.51
2023-05-09T11:45:25.248Z,50.11
2023-05-09T11:47:51.712Z,49.71
2023-05-09T11:50:19.288Z,48.86
2023-05-09T11:52:45.730Z,49.66
2023-05-09T11:55:12.851Z,49.79
2023-05-09T11:57:39.406Z,48.78
2023-05-09T12:00:06.564Z,48.22
2023-05-09T12:02:34.839Z,47.61
2023-05-09T12:05:01.325Z,47.49
2023-05-09T12:07:27.701Z,48.83
2023-05-09T12:09:54.151Z,49.23
2023-05-09T12:12:21.621Z,48.57
2023-05-09T12:14:48.246Z,48.28
2023-05-09T12:17:14.676Z,48.91
2023-05-09T12:19:41.043Z,48.71
2023-05-09T12:22:07.656Z,48.10
2023-05-09T12:24:34.074Z,48.57
2023-05-09T12:27:00.496Z,48.09
2023-05-09T12:29:26.924Z,49.03
2023-05-09T12:31:53.476Z,48.44
2023-05-09T12:34:20.133Z,48.34
2023-05-09T12:36:53.480Z,48.70
2023-05-09T12:39:21.936Z,49.01
2023-05-09T12:42:00.493Z,49.04
2023-05-09T12:44:29.666Z,48.46
2023-05-09T12:46:56.618Z,48.71
2023-05-09T12:49:23.043Z,49.70
2023-05-09T12:51:50.163Z,50.05
2023-05-09T12:54:16.512Z,50.48
2023-05-09T12:56:42.864Z,56.64
2023-05-09T12:59:09.403Z,63.95
2023-05-09T13:01:35.903Z,68.93
2023-05-09T13:04:02.343Z,70.59
2023-05-09T13:06:28.732Z,72.25
2023-05-09T13:08:55.121Z,72.87
2023-05-09T13:11:21.526Z,72.98
2023-05-09T13:13:47.898Z,74.12
2023-05-09T13:16:15.891Z,77.48
2023-05-09T13:18:43.975Z,77.82
2023-05-09T13:21:10.382Z,77.73
2023-05-09T13:23:36.850Z,78.73
2023-05-09T13:26:03.563Z,78.86
2023-05-09T13:28:29.964Z,76.75
2023-05-09T13:30:56.379Z,75.46
2023-05-09T13:33:26.269Z,75.20
2023-05-09T13:35:53.249Z,73.28
2023-05-09T13:38:19.647Z,74.41
2023-05-09T13:40:46.308Z,73.32
2023-05-09T13:43:12.666Z,73.27
2023-05-09T13:45:39.155Z,73.71
2023-05-09T13:48:05.605Z,73.77
2023-05-09T13:50:32.031Z,73.69
2023-05-09T13:52:58.663Z,73.18
2023-05-09T13:55:26.433Z,73.49
2023-05-09T13:57:52.893Z,74.25
2023-05-09T14:00:21.318Z,73.66
2023-05-09T14:02:48.265Z,73.80
2023-05-09T14:05:15.861Z,75.26
2023-05-09T14:07:42.752Z,74.22
2023-05-09T14:10:11.865Z,74.87
2023-05-09T14:12:44.324Z,75.78
2023-05-09T14:15:11.241Z,74.79
2023-05-09T14:17:37.876Z,74.68
2023-05-09T14:20:04.257Z,75.35
2023-05-09T14:22:30.747Z,75.59
2023-05-09T14:24:57.544Z,75.07
2023-05-09T14:27:23.929Z,76.69
2023-05-09T14:29:50.399Z,77.08
2023-05-09T14:32:17.352Z,77.51
2023-05-09T14:34:45.672Z,76.50
2023-05-09T14:37:15.147Z,78.01
2023-05-09T14:39:42.505Z,78.66
2023-05-09T14:42:10.364Z,76.57
2023-05-09T14:44:36.788Z,78.54
2023-05-09T14:47:03.262Z,79.00
2023-05-09T14:49:29.685Z,80.97
2023-05-09T14:51:56.158Z,81.28
2023-05-09T14:54:22.723Z,82.33
2023-05-09T14:56:49.115Z,81.69
2023-05-09T14:59:15.875Z,81.91
2023-05-09T15:01:42.252Z,82.57
2023-05-09T15:04:09.404Z,82.87
2023-05-09T15:06:35.887Z,84.40
2023-05-09T15:09:02.715Z,83.89
2023-05-09T15:11:33.475Z,82.07
2023-05-09T15:14:09.983Z,82.29
2023-05-09T15:16:36.429Z,83.01
2023-05-09T15:19:04.413Z,83.78
2023-05-09T15:21:33.264Z,82.75
2023-05-09T15:23:59.745Z,83.10
2023-05-09T15:26:26.330Z,81.56
2023-05-09T15:28:52.753Z,83.14
2023-05-09T15:31:23.328Z,84.55
2023-05-09T15:33:49.755Z,82.65
2023-05-09T15:36:16.319Z,81.87
2023-05-09T15:38:42.798Z,84.48
2023-05-09T15:41:09.349Z,81.53
2023-05-09T15:43:35.719Z,80.38
2023-05-09T15:46:02.910Z,83.20
2023-05-09T15:48:29.422Z,83.85
2023-05-09T15:50:55.833Z,84.11
2023-05-09T15:53:23.338Z,84.89
2023-05-09T15:55:50.172Z,83.82
2023-05-09T15:58:16.609Z,83.50
2023-05-09T16:00:43.143Z,84.95
2023-05-09T16:03:09.707Z,84.53
2023-05-09T16:05:36.206Z,83.73
2023-05-09T16:08:02.933Z,82.56
2023-05-09T16:10:29.583Z,82.72
2023-05-09T16:12:56.032Z,84.29
2023-05-09T16:15:22.449Z,84.83
2023-05-09T16:17:48.865Z,86.96
2023-05-09T16:20:15.614Z,87.01
2023-05-09T16:22:42.456Z,85.01
2023-05-09T16:25:09.410Z,83.83
2023-05-09T16:27:35.837Z,84.89
2023-05-09T16:30:02.275Z,84.89
2023-05-09T16:32:28.698Z,83.02
2023-05-09T16:34:55.930Z,83.62
2023-05-09T16:37:22.328Z,82.65
2023-05-09T16:39:48.900Z,83.28
2023-05-09T16:42:15.254Z,83.71
2023-05-09T16:44:41.700Z,83.38
2023-05-09T16:47:08.070Z,81.13
2023-05-09T16:49:34.450Z,81.44
2023-05-09T16:52:00.874Z,81.97
2023-05-09T16:54:27.253Z,82.22
2023-05-09T16:56:54.057Z,81.54
2023-05-09T16:59:20.797Z,81.99
2023-05-09T17:01:47.598Z,82.93
2023-05-09T17:04:14.241Z,81.82
2023-05-09T17:06:40.821Z,82.32
2023-05-09T17:09:07.594Z,82.40
2023-05-09T17:11:33.970Z,82.38
2023-05-09T17:14:00.962Z,81.71
2023-05-09T17:16:27.596Z,80.92
2023-05-09T17:18:54.060Z,82.53
2023-05-09T17:21:20.516Z,80.55
2023-05-09T17:23:46.900Z,80.85
2023-05-09T17:26:13.263Z,80.78
2023-05-09T17:28:39.656Z,78.88
2023-05-09T17:31:06.546Z,79.11
2023-05-09T17:33:33.084Z,78.34
2023-05-09T17:36:00.038Z,78.98
2023-05-09T17:38:26.412Z,78.88
2023-05-09T17:40:52.732Z,79.91
2023-05-09T17:43:19.142Z,77.97
2023-05-09T17:45:46.303Z,78.19
2023-05-09T17:48:13.831Z,78.92
2023-05-09T17:50:40.181Z,79.63
2023-05-09T17:53:08.794Z,79.86
2023-05-09T17:55:35.255Z,79.91
2023-05-09T17:58:01.841Z,79.95
2023-05-09T18:00:29.174Z,80.30
2023-05-09T18:02:56.598Z,80.46
2023-05-09T18:05:24.166Z,79.98
2023-05-09T18:07:51.452Z,78.53
2023-05-09T18:10:18.991Z,79.41
2023-05-09T18:12:45.803Z,78.34
2023-05-09T18:15:12.205Z,78.08
2023-05-09T18:17:38.680Z,79.19
2023-05-09T18:20:05.052Z,82.75
2023-05-09T18:22:32.260Z,82.64
2023-05-09T18:24:58.616Z,82.05
2023-05-09T18:27:25.076Z,82.16
2023-05-09T18:29:51.558Z,81.31
2023-05-09T18:32:18.500Z,81.24
2023-05-09T18:34:45.258Z,78.30
2023-05-09T18:37:11.870Z,77.35
2023-05-09T18:39:38.349Z,78.94
2023-05-09T18:42:06.382Z,80.07
2023-05-09T18:44:32.785Z,79.35
2023-05-09T18:46:59.398Z,79.65
2023-05-09T18:49:26.376Z,79.37
2023-05-09T18:51:53.385Z,80.11
2023-05-09T18:54:20.633Z,79.78
2023-05-09T18:56:47.348Z,80.72
2023-05-09T18:59:16.200Z,79.77
2023-05-09T19:01:43.919Z,79.82
2023-05-09T19:04:10.341Z,81.58
2023-05-09T19:06:37.060Z,81.30
2023-05-09T19:09:04.417Z,81.56
2023-05-09T19:11:30.883Z,80.78
2023-05-09T19:13:57.354Z,79.89
2023-05-09T19:16:24.761Z,80.29
2023-05-09T19:18:51.519Z,80.72
2023-05-09T19:21:19.432Z,80.37
2023-05-09T19:23:49.373Z,80.34
2023-05-09T19:26:15.956Z,78.51
2023-05-09T19:28:42.692Z,79.29
2023-05-09T19:31:09.853Z,80.34
2023-05-09T19:33:36.440Z,78.67
2023-05-09T19:36:02.869Z,79.10
2023-05-09T19:38:29.370Z,77.92
2023-05-09T19:40:56.202Z,79.74
2023-05-09T19:43:23.008Z,79.82
2023-05-09T19:45:49.723Z,80.58
2023-05-09T19:48:16.235Z,80.16
2023-05-09T19:50:42.701Z,80.51
2023-05-09T19:53:09.024Z,82.92
2023-05-09T19:55:35.499Z,81.99
2023-05-09T19:58:01.911Z,80.67
2023-05-09T20:00:28.277Z,81.27
2023-05-09T20:02:54.741Z,78.55
2023-05-09T20:05:21.244Z,79.11
2023-05-09T20:07:47.630Z,80.25
2023-05-09T20:10:15.582Z,79.86
2023-05-09T20:12:42.112Z,79.58
2023-05-09T20:15:08.817Z,79.93
2023-05-09T20:17:35.317Z,81.67
2023-05-09T20:20:01.808Z,82.12
2023-05-09T20:22:28.212Z,81.76
2023-05-09T20:24:55.134Z,83.34
2023-05-09T20:27:21.986Z,82.70
2023-05-09T20:29:48.683Z,82.33
2023-05-09T20:32:15.113Z,81.92
2023-05-09T20:34:41.809Z,84.58
2023-05-09T20:37:08.955Z,83.54
2023-05-09T20:39:35.477Z,83.90
2023-05-09T20:42:02.457Z,83.16
2023-05-09T20:44:29.171Z,82.29
2023-05-09T20:46:56.203Z,81.62
2023-05-09T20:49:22.968Z,81.28
2023-05-09T20:51:49.512Z,81.60
2023-05-09T20:54:16.977Z,81.58
2023-05-09T20:56:46.435Z,82.24
2023-05-09T20:59:12.891Z,81.33
2023-05-09T21:01:40.206Z,80.90
2023-05-09T21:04:08.350Z,79.82
2023-05-09T21:06:34.741Z,79.95
2023-05-09T21:09:01.074Z,79.94
2023-05-09T21:11:27.496Z,81.44
2023-05-09T21:13:54.271Z,81.63
2023-05-09T21:16:20.672Z,81.88
2023-05-09T21:18:47.011Z,81.94
2023-05-09T21:21:13.825Z,81.36
2023-05-09T21:23:40.186Z,84.63
2023-05-09T21:26:06.999Z,83.21
2023-05-09T21:28:33.550Z,85.79
2023-05-09T21:31:01.661Z,84.89
2023-05-09T21:33:28.086Z,82.17
2023-05-09T21:35:54.722Z,82.50
2023-05-09T21:38:21.152Z,82.93
2023-05-09T21:40:47.540Z,84.16
2023-05-09T21:43:13.961Z,85.01
2023-05-09T21:45:40.434Z,84.48
2023-05-09T21:48:07.103Z,86.17
2023-05-09T21:50:33.552Z,83.31
2023-05-09T21:53:03.765Z,82.94
2023-05-09T21:55:30.196Z,84.83
2023-05-09T21:57:56.611Z,86.00
2023-05-09T22:00:22.964Z,86.10
2023-05-09T22:02:50.533Z,85.54
2023-05-09T22:05:19.344Z,85.99
2023-05-09T22:07:45.821Z,87.09
2023-05-09T22:10:12.254Z,86.04
2023-05-09T22:12:38.611Z,87.00
2023-05-09T22:15:05.007Z,86.72
2023-05-09T22:17:31.396Z,86.47
2023-05-09T22:20:00.286Z,86.89
2023-05-09T22:22:29.317Z,87.32
2023-05-09T22:24:56.020Z,85.60
2023-05-09T22:27:22.967Z,85.93
2023-05-09T22:29:49.558Z,85.60
2023-05-09T22:32:16.458Z,84.22
2023-05-09T22:34:42.869Z,85.82
2023-05-09T22:37:09.988Z,86.47
2023-05-09T22:39:36.412Z,87.19
2023-05-09T22:42:03.988Z,84.78
2023-05-09T22:44:30.452Z,87.17
2023-05-09T22:46:59.213Z,87.58
2023-05-09T22:49:25.898Z,87.93
2023-05-09T22:51:52.281Z,89.28
2023-05-09T22:54:24.944Z,89.64
2023-05-09T22:56:51.375Z,90.02
2023-05-09T22:59:17.743Z,91.11
2023-05-09T23:01:44.385Z,90.38
2023-05-09T23:04:13.992Z,88.80
2023-05-09T23:06:43.794Z,87.04
2023-05-09T23:09:10.864Z,88.90
2023-05-09T23:11:37.583Z,88.35
2023-05-09T23:14:03.964Z,88.68
2023-05-09T23:16:30.529Z,87.09
2023-05-09T23:18:57.302Z,87.46
2023-05-09T23:21:26.071Z,88.88
2023-05-09T23:23:53.008Z,89.79
2023-05-09T23:26:19.368Z,89.57
2023-05-09T23:28:45.878Z,88.28
2023-05-09T23:31:12.316Z,89.26
2023-05-09T23:33:40.152Z,88.27
2023-05-09T23:36:06.503Z,85.53
2023-05-09T23:38:32.861Z,86.06
2023-05-09T23:41:00.047Z,85.07
2023-05-09T23:43:26.515Z,87.13
2023-05-09T23:45:53.921Z,85.69
2023-05-09T23:48:20.329Z,88.28
2023-05-09T23:50:49.909Z,86.15
2023-05-09T23:53:16.612Z,87.94
2023-05-09T23:55:42.986Z,87.19
2023-05-09T23:58:09.346Z,85.55
